BIRK/RKV METAR and TAF weather

Enter ICAO airport designator
Station Type Date Time Source
BIRK METAR 2021/09/24 00:00 UTC NOAA

BIRK 240000Z 33012KT 300V360 CAVOK 05/01 Q0988


Station Type Date Time Source
BIRK Decoded METAR 2021/09/24 00:00 UTC NOAA

Reykjavik, Iceland (BIRK) 64-08N 021-54W 61M
Sep 23, 2021 - 08:00 PM EDT / 2021.09.24 0000 UTC
Wind: from the NNW (330 degrees) at 14 MPH (12 KT) (direction variable):0
Visibility: greater than 7 mile(s):0
Temperature: 41 F (5 C)
Dew Point: 33 F (1 C)
Relative Humidity: 75%
Pressure (altimeter): 29.18 in. Hg (0988 hPa)
ob: BIRK 240000Z 33012KT 300V360 CAVOK 05/01 Q0988
cycle: 0

Station Type Date Time Source
BIRK TAF 2021/09/23 21:00 UTC NOAA

TAF BIRK 231917Z 2321/2421 04012KT 9999 -RA BKN018 TX07/2415Z TN02/2407Z
BECMG 2322/2400 33012KT NSW BKN022
BECMG 2404/2406 04006KT
BECMG 2412/2414 09010KT -SHRA

Example: see airport list